Flight Track Log - Related Links

Times and Time Zones

All times are in EDT time to prevent confusion due to time zone crossing. See the FIN666 flight status page for this flight to view local times or setup timezone preferences in your user account.

Time Position Orientation Groundspeed Altitude Reporting Facility
EDT Latitude Longitude Course Direction KTS MPH feet Rate Location/Type
Thu 07:27:00 AM 55.8420 13.1192 49° Northeast  Level Estimated
Thu 07:28:00 AM 55.9164 13.2747 50° Northeast  Level Estimated
Thu 07:29:00 AM 55.9905 13.4309 50° Northeast  Level Estimated
Thu 07:30:00 AM 56.0644 13.5877 50° Northeast  Level Estimated
Thu 07:31:00 AM 56.1381 13.7451 50° Northeast  Level Estimated
Thu 07:32:00 AM 56.2117 13.9031 50° Northeast  Level Estimated
Thu 07:33:00 AM 56.2850 14.0617 50° Northeast  Level Estimated
Thu 07:34:00 AM 56.3581 14.2208 50° Northeast  Level Estimated
Thu 07:35:00 AM 56.4310 14.3807 50° Northeast  Level Estimated
Thu 07:36:00 AM 56.5037 14.5411 51° Northeast  Level Estimated
Thu 07:37:00 AM 56.5762 14.7021 51° Northeast  Level Estimated
Thu 07:38:00 AM 56.6485 14.8638 51° Northeast  Level Estimated
Thu 07:39:00 AM 56.7206 15.0260 51° Northeast  Level Estimated
Thu 07:40:00 AM 56.7925 15.1889 51° Northeast  Level Estimated
Thu 07:41:00 AM 56.8641 15.3525 51° Northeast  Level Estimated
Thu 07:42:00 AM 56.9356 15.5166 51° Northeast  Level Estimated
Thu 07:43:00 AM 57.0068 15.6814 52° Northeast  Level Estimated
Thu 07:44:00 AM 57.0778 15.8468 52° Northeast  Level Estimated
Thu 07:45:00 AM 57.1486 16.0129 52° Northeast  Level Estimated
Thu 07:46:00 AM 57.2212 16.1845 52° Northeast  Level Estimated
Thu 07:47:00 AM 57.2936 16.3567 52° Northeast  Level Estimated
Thu 07:48:00 AM 57.3658 16.5297 52° Northeast  Level Estimated
Thu 07:49:00 AM 57.4377 16.7033 52° Northeast  Level Estimated
Thu 07:50:00 AM 57.5094 16.8776 53° Northeast  Level Estimated
Thu 07:51:00 AM 57.5809 17.0526 53° Northeast  Level Estimated
Thu 07:52:00 AM 57.6521 17.2283 53° Northeast  Level Estimated
Thu 07:53:00 AM 57.7230 17.4046 53° Northeast  Level Estimated
Thu 07:54:00 AM 57.7938 17.5817 53° Northeast  Level Estimated
Thu 07:55:00 AM 57.8642 17.7595 53° Northeast  Level Estimated
Thu 07:56:00 AM 57.9345 17.9379 53° Northeast  Level Estimated
Thu 07:57:00 AM 58.0044 18.1171 54° Northeast  Level Estimated
Thu 07:58:00 AM 58.0742 18.2969 54° Northeast  Level Estimated
Thu 07:59:00 AM 58.1436 18.4775 54° Northeast  Level Estimated
Thu 08:00:00 AM 58.2128 18.6587 54° Northeast  Level Estimated
Thu 08:01:00 AM 58.2818 18.8407 54° Northeast  Level Estimated
Thu 08:02:00 AM 58.3505 19.0234 54° Northeast  Level Estimated
Thu 08:03:00 AM 58.4189 19.2068 54° Northeast  Level Estimated
Thu 08:04:00 AM 58.4871 19.3909 55° Northeast  Level Estimated
Thu 08:05:00 AM 58.5550 19.5757 55° Northeast  Level Estimated
Thu 08:06:00 AM 58.6226 19.7612 55° Northeast  Level Estimated
Thu 08:07:00 AM 58.6900 19.9474 55° Northeast  Level Estimated
Thu 08:08:00 AM 58.7571 20.1344 55° Northeast  Level Estimated
Thu 08:09:00 AM 58.8239 20.3221 55° Northeast  Level Estimated
Thu 08:10:00 AM 58.8904 20.5105 56° Northeast  Level Estimated
Thu 08:11:00 AM 58.9567 20.6996 56° Northeast  Level Estimated
Thu 08:12:00 AM 59.0227 20.8895 56° Northeast  Level Estimated
Thu 08:13:00 AM 59.0884 21.0801 56° Northeast  Level Estimated
Thu 08:14:00 AM 59.1539 21.2714 56° Northeast  Level Estimated
Thu 08:15:00 AM 59.2181 21.4607 56° Northeast  Level Estimated
Thu 08:16:00 AM 59.2820 21.6507 57° Northeast  Level Estimated
Thu 08:17:00 AM 59.3457 21.8414 57° Northeast  Level Estimated
Thu 08:18:00 AM 59.4091 22.0328 57° Northeast  Level Estimated
Thu 08:19:00 AM 59.4722 22.2249 57° Northeast  Level Estimated
Thu 08:20:00 AM 59.5350 22.4177 57° Northeast  Level Estimated
Thu 08:21:00 AM 59.5975 22.6113 57° Northeast  Level Estimated
Thu 08:22:00 AM 59.6598 22.8056 58° Northeast  Level Estimated
Thu 08:23:00 AM 59.7217 23.0006 58° Northeast  Level Estimated
Thu 08:24:00 AM 59.7834 23.1963 58° Northeast  Level Estimated
Thu 08:25:00 AM 59.8448 23.3927 58° Northeast  Level Estimated
Thu 08:26:00 AM 59.9059 23.5899 58° Northeast  Level Estimated
Thu 08:27:00 AM 59.9667 23.7878 58° Northeast  Level Estimated
Thu 08:28:00 AM 60.0271 23.9864 59° Northeast  Level Estimated
Thu 08:29:00 AM 60.0873 24.1857 59° Northeast  Level Estimated
Thu 08:30:00 AM 60.1472 24.3858 59° Northeast  Level Estimated
Thu 08:31:00 AM 60.2068 24.5866 59° Northeast  Level Estimated
Thu 08:32:00 AM 60.2661 24.7882 59° Northeast  Level Estimated
Thu 08:33:00 AM 60.3172 24.9633 59° Northeast  Level Estimated
Thu 08:34:00 AM 60.3172 24.9633 North  Level Estimated
Thu 08:35:00 AM 60.3172 24.9633 North  Level Estimated
Thu 08:36:00 AM 60.3172 24.9633 North  Level Estimated
Thu 08:37:00 AM 60.3172 24.9633 North  Level Estimated
Thu 08:38:00 AM 60.3172 24.9633 North  Level Estimated
Thu 08:39:00 AM 60.3172 24.9633 North  Level Estimated
Thu 08:40:00 AM 60.3172 24.9633 North  Level Estimated
Thu 08:41:00 AM 60.3172 24.9633 North  Level Estimated
Thu 08:42:00 AM 60.3172 24.9633 North  Level Estimated

Login

Don't have an account? Register now (free) for customized features, flight alerts, and more!